Cleveland, Ohio
Traffic Map
Current Weather Conditions
Cleveland, Ohio
Few Clouds
Few Clouds
16°
Feels Like: 16°
Wind Chill: 16° Ceiling: Unl
Heat Index: 16° Visibility: 10mi
Dew Point: 14° Wind: 7mph
Humidity: 87% Direction: 20° (NNE)
Pressure: 30.19in Gusts: 0mph
Raw Report DataKBKL 280953Z 02006KT 10SM FEW042 16/14 A3019 RMK AO2 SLP221 T01610139
Traffic Incident Summary
Active as of:
Severity:
Category:
InformationThere was an issue retrieving the traffic information for this location. Please try a different location or try again shortly.
Advertisements
Track Severe Weather on mobile